Flight Track Log - Related Links

Times and Time Zones

All times are in EDT time to prevent confusion due to time zone crossing. See the N427SE flight status page for this flight to view local times or setup timezone preferences in your user account.

Time Position Orientation Groundspeed Altitude Reporting Facility
EDT Latitude Longitude Course Direction KTS MPH feet Rate Location/Type
05:09PM 30.0008 -90.2458 330° Northwest 111 128 300  Level Houston Center
05:10PM 30.0414 -90.2706 332° Northwest 147 169 2,100 1,379 Climbing Houston Center
05:11PM 30.0475 -90.2733 339° North 139 160 2,300 1,700 Climbing Houston Center
05:11PM 30.0797 -90.2953 329° Northwest 151 174 3,800 1,548 Climbing Houston Center
05:12PM 30.0819 -90.2978 316° Northwest 140 161 3,900 197 Climbing Houston Center
05:12PM 30.1225 -90.3272 328° Northwest 203 234 4,000 97 Climbing Houston Center
05:13PM 30.1281 -90.3322 322° Northwest 177 204 4,000 493 Level Houston Center
05:14PM 30.1722 -90.3856 314° West 225 259 4,600 513 Climbing Houston Center
05:15PM 30.2114 -90.4369 311° West 201 231 5,000 209 Climbing Houston Center
05:16PM 30.3608 -90.4461 330° Northwest  Level FlightAware Approximate
05:16PM 30.2336 -90.4889 296° West 212 244 5,000  Level Houston Center
05:16PM 30.2406 -90.5006 305° West 211 243 5,000  Level Houston Center
05:16PM 30.2603 -90.5361 303° West 215 247 5,000 581 Level Houston Center
05:17PM 30.2794 -90.5478 332° Northwest 210 242 5,600 2,066 Climbing Houston Center
05:17PM 30.2986 -90.5683 317° Northwest 153 176 7,100 1,714 Climbing Houston Center
05:18PM 30.3089 -90.5794 317° Northwest 158 182 7,400 1,239 Climbing Houston Center
05:19PM 30.3436 -90.6128 320° Northwest 154 177 9,000 1,258 Climbing Houston Center
05:20PM 30.3594 -90.6672 289° West 154 177 10,000 1,210 Climbing Houston Center
05:21PM 30.3844 -90.7097 304° West 159 183 11,500 1,403 Climbing Houston Center
05:22PM 30.4178 -90.7458 317° Northwest 163 188 12,900 1,258 Climbing Houston Center
05:23PM 30.4500 -90.7853 313° West 165 190 14,100 1,104 Climbing Houston Center
05:24PM 30.4803 -90.8294 309° West 170 196 15,200 864 Climbing Houston Center
05:25PM 30.5192 -90.8619 324° Northwest 170 196 15,900 339 Climbing Houston Center
05:26PM 30.5844 -90.8989 334° Northwest 214 246 15,900  Level Houston Center
05:27PM 30.6447 -90.9333 334° Northwest 236 272 15,900  Level Houston Center
05:28PM 30.7050 -90.9672 334° Northwest 239 275 15,900  Level Houston Center
05:29PM 30.7639 -91.0017 333° Northwest 238 274 15,900  Level Houston Center
05:30PM 30.8233 -91.0367 333° Northwest 237 273 15,900 48 Level Houston Center
05:31PM 30.8836 -91.0714 334° Northwest 238 274 16,000  Climbing Houston Center
05:32PM 30.9511 -91.1117 333° Northwest 238 274 15,900  Descending Houston Center
05:33PM 31.0142 -91.1478 334° Northwest 238 274 16,000  Climbing Houston Center
05:34PM 31.0744 -91.1831 333° Northwest 240 276 15,900 -48 Descending Houston Center
05:36PM 31.1339 -91.2186 333° Northwest 240 276 15,900  Level Houston Center
05:37PM 31.1936 -91.2528 334° Northwest 240 276 15,900 48 Level Houston Center
05:38PM 31.2636 -91.2953 333° Northwest 240 276 16,000 48 Climbing Houston Center
05:39PM 31.3203 -91.3269 334° Northwest 239 275 16,000  Level Houston Center
05:40PM 31.3792 -91.3614 333° Northwest 239 275 16,000 -194 Level Houston Center
05:41PM 31.4392 -91.3969 333° Northwest 240 276 15,600 -677 Descending Houston Center
05:42PM 31.5158 -91.4431 333° Northwest 252 290 14,600 -919 Descending Houston Center
05:43PM 31.5769 -91.4783 334° Northwest 252 290 13,700 -864 Descending Houston Center
05:44PM 31.6367 -91.5133 333° Northwest 247 284 12,800 -816 Descending Houston Center
05:45PM 31.6942 -91.5486 332° Northwest 237 273 12,000 -774 Descending Houston Center
05:46PM 31.7533 -91.5825 334° Northwest 236 272 11,200 -816 Descending Houston Center
05:47PM 31.8242 -91.6256 333° Northwest 237 273 10,300 -871 Descending Houston Center
05:48PM 31.8822 -91.6647 330° Northwest 237 273 9,400 -829 Descending Houston Center
05:49PM 31.9361 -91.7139 322° Northwest 244 281 8,600 -768 Descending Houston Center
05:50PM 31.9900 -91.7536 328° Northwest 235 270 7,800 -720 Descending Houston Center
05:51PM 32.0492 -91.7844 336° Northwest 234 269 7,100 -823 Descending Houston Center
05:52PM 32.1181 -91.8208 336° Northwest 233 268 6,100 -968 Descending Houston Center
05:53PM 32.1761 -91.8519 336° Northwest 232 267 5,100 -871 Descending Houston Center
05:54PM 32.2319 -91.8836 334° Northwest 229 264 4,300 -733 Descending Houston Center
05:55PM 32.2875 -91.9133 336° Northwest 225 259 3,500 -696 Descending Fort Worth Center
05:57PM 32.3587 -91.9535 341° North  Level FlightAware Approximate
06:04PM 32.5000 -92.0333 328° Northwest  Level FlightAware Approximate
06:05PM 32.5109 -92.0377 270° West  Level Estimated
06:06PM 32.5109 -92.0377 328° Northwest  Level Estimated
06:07PM 32.5109 -92.0377 161° South  Level Estimated

Login

Don't have an account? Register now (free) for customized features, flight alerts, and more!